createdAt,value
2023-01-26T00:03:30.922Z,73.04
2023-01-26T00:08:37.699Z,72.48
2023-01-26T00:13:39.645Z,72.66
2023-01-26T00:18:42.169Z,72.35
2023-01-26T00:23:44.347Z,72.37
2023-01-26T00:28:54.986Z,72.58
2023-01-26T00:34:00.023Z,72.27
2023-01-26T00:39:02.776Z,72.51
2023-01-26T00:44:04.524Z,72.34
2023-01-26T00:49:09.293Z,72.72
2023-01-26T00:54:10.803Z,73.01
2023-01-26T00:59:12.431Z,72.58
2023-01-26T01:04:17.045Z,72.85
2023-01-26T01:09:18.862Z,73.09
2023-01-26T01:14:20.326Z,73.28
2023-01-26T01:19:21.856Z,73.34
2023-01-26T01:24:23.337Z,73.30
2023-01-26T01:29:25.275Z,73.23
2023-01-26T01:34:26.769Z,73.00
2023-01-26T01:39:28.205Z,73.23
2023-01-26T01:44:29.713Z,73.62
2023-01-26T01:49:43.897Z,73.40
2023-01-26T01:54:53.191Z,73.72
2023-01-26T02:00:22.354Z,73.88
2023-01-26T02:05:31.471Z,73.45
2023-01-26T02:10:33.157Z,73.58
2023-01-26T02:15:34.693Z,73.81
2023-01-26T02:20:45.251Z,73.16
2023-01-26T02:25:49.545Z,73.52
2023-01-26T02:30:53.033Z,72.96
2023-01-26T02:35:54.474Z,72.83
2023-01-26T02:41:00.271Z,72.92
2023-01-26T02:46:01.913Z,72.82
2023-01-26T02:51:04.391Z,72.73
2023-01-26T02:56:06.238Z,71.97
2023-01-26T03:01:07.906Z,72.35
2023-01-26T03:06:13.679Z,71.78
2023-01-26T03:11:15.139Z,72.27
2023-01-26T03:16:18.528Z,72.12
2023-01-26T03:21:38.577Z,71.84
2023-01-26T03:26:59.103Z,71.57
2023-01-26T03:32:01.436Z,72.01
2023-01-26T03:37:03.715Z,71.57
2023-01-26T03:42:25.255Z,71.67
2023-01-26T03:47:45.245Z,71.97
2023-01-26T03:53:05.143Z,71.57
2023-01-26T03:58:08.511Z,71.60
2023-01-26T04:03:28.566Z,71.36
2023-01-26T04:08:30.440Z,71.30
2023-01-26T04:13:50.314Z,71.48
2023-01-26T04:19:12.754Z,71.29
2023-01-26T04:24:16.695Z,71.53
2023-01-26T04:29:18.575Z,71.42
2023-01-26T04:34:20.132Z,71.27
2023-01-26T04:39:21.595Z,71.17
2023-01-26T04:44:23.066Z,71.22
2023-01-26T04:49:24.591Z,71.40
2023-01-26T04:54:26.284Z,70.77
2023-01-26T04:59:27.900Z,70.72
2023-01-26T05:04:29.372Z,71.17
2023-01-26T05:09:30.905Z,70.57
2023-01-26T05:14:32.373Z,70.90
2023-01-26T05:19:33.821Z,71.32
2023-01-26T05:24:35.229Z,70.92
2023-01-26T05:29:36.698Z,70.80
2023-01-26T05:34:38.232Z,70.58
2023-01-26T05:39:39.563Z,71.08
2023-01-26T05:44:40.885Z,70.73
2023-01-26T05:49:45.858Z,70.50
2023-01-26T05:54:47.634Z,70.66
2023-01-26T05:59:48.950Z,70.58
2023-01-26T06:04:50.259Z,70.46
2023-01-26T06:09:52.411Z,70.40
2023-01-26T06:14:53.757Z,71.00
2023-01-26T06:19:55.158Z,70.90
2023-01-26T06:24:56.524Z,70.22
2023-01-26T06:29:57.861Z,70.34
2023-01-26T06:34:59.189Z,70.97
2023-01-26T06:40:00.626Z,70.09
2023-01-26T06:45:02.044Z,71.01
2023-01-26T06:50:03.671Z,70.67
2023-01-26T06:55:05.210Z,70.00
2023-01-26T07:00:07.319Z,69.95
2023-01-26T07:05:10.246Z,70.26
2023-01-26T07:10:12.929Z,69.94
2023-01-26T07:15:14.402Z,70.05
2023-01-26T07:20:15.941Z,69.39
2023-01-26T07:25:17.949Z,69.21
2023-01-26T07:30:19.355Z,69.50
2023-01-26T07:35:20.677Z,69.32
2023-01-26T07:40:21.995Z,68.53
2023-01-26T07:45:23.302Z,68.58
2023-01-26T07:50:25.765Z,68.62
2023-01-26T07:55:27.219Z,68.89
2023-01-26T08:00:28.566Z,68.19
2023-01-26T08:05:31.558Z,68.57
2023-01-26T08:10:33.006Z,69.10
2023-01-26T08:15:34.353Z,68.86
2023-01-26T08:20:35.741Z,69.29
2023-01-26T08:25:37.086Z,69.16
2023-01-26T08:30:38.611Z,68.53
2023-01-26T08:35:39.922Z,69.28
2023-01-26T08:40:41.246Z,68.39
2023-01-26T08:45:42.573Z,68.70
2023-01-26T08:50:44.518Z,68.52
2023-01-26T08:55:45.915Z,67.96
2023-01-26T09:00:47.595Z,68.84
2023-01-26T09:05:49.041Z,67.78
2023-01-26T09:10:50.399Z,68.09
2023-01-26T09:15:52.387Z,67.86
2023-01-26T09:20:55.697Z,67.64
2023-01-26T09:25:57.022Z,68.28
2023-01-26T09:31:04.827Z,67.48
2023-01-26T09:36:08.995Z,67.14
2023-01-26T09:41:10.646Z,67.14
2023-01-26T09:46:25.160Z,67.48
2023-01-26T09:51:31.293Z,67.98
2023-01-26T09:56:34.015Z,67.86
2023-01-26T10:01:43.282Z,68.34
2023-01-26T10:06:45.998Z,67.29
2023-01-26T10:11:53.026Z,66.90
2023-01-26T10:16:54.367Z,67.46
2023-01-26T10:21:59.614Z,67.44
2023-01-26T10:27:01.108Z,67.26
2023-01-26T10:32:03.534Z,67.02
2023-01-26T10:37:20.757Z,67.28
2023-01-26T10:42:22.421Z,67.30
2023-01-26T10:47:24.494Z,66.63
2023-01-26T10:52:25.916Z,66.34
2023-01-26T10:57:29.700Z,66.02
2023-01-26T11:02:31.888Z,65.65
2023-01-26T11:07:37.926Z,66.11
2023-01-26T11:12:39.543Z,65.77
2023-01-26T11:17:51.166Z,65.53
2023-01-26T11:23:18.224Z,65.56
2023-01-26T11:28:28.627Z,64.84
2023-01-26T11:33:46.243Z,64.36
2023-01-26T11:39:01.938Z,64.02
2023-01-26T11:44:28.863Z,64.86
2023-01-26T11:49:48.400Z,64.81
2023-01-26T11:55:24.015Z,63.91
2023-01-26T12:00:38.021Z,64.31
2023-01-26T12:05:46.270Z,64.67
2023-01-26T12:10:59.389Z,64.30
2023-01-26T12:16:13.545Z,64.08
2023-01-26T12:21:15.143Z,64.30
2023-01-26T12:26:20.585Z,63.98
2023-01-26T12:31:41.671Z,63.87
2023-01-26T12:37:04.498Z,64.27
2023-01-26T12:42:40.861Z,64.79
2023-01-26T12:48:14.604Z,64.59
2023-01-26T12:53:22.027Z,64.48
2023-01-26T12:58:29.798Z,64.84
2023-01-26T13:03:35.404Z,64.67
2023-01-26T13:08:36.953Z,64.12
2023-01-26T13:13:58.785Z,64.52
2023-01-26T13:19:02.636Z,64.47
2023-01-26T13:24:16.295Z,64.26
2023-01-26T13:29:32.878Z,63.89
2023-01-26T13:34:44.911Z,64.25
2023-01-26T13:39:54.655Z,64.43
2023-01-26T13:45:04.291Z,64.16
2023-01-26T13:50:32.167Z,64.01
2023-01-26T13:55:34.201Z,64.28
2023-01-26T14:00:35.646Z,64.14
2023-01-26T14:05:37.150Z,64.52
2023-01-26T14:10:43.232Z,64.27
2023-01-26T14:15:56.406Z,63.92
2023-01-26T14:21:04.939Z,63.87
2023-01-26T14:26:20.803Z,63.64
2023-01-26T14:31:26.691Z,64.34
2023-01-26T14:36:33.137Z,64.53
2023-01-26T14:41:37.769Z,64.01
2023-01-26T14:47:12.356Z,64.24
2023-01-26T14:52:27.137Z,64.61
2023-01-26T14:57:30.949Z,64.87
2023-01-26T15:02:38.408Z,64.65
2023-01-26T15:07:48.301Z,64.64
2023-01-26T15:12:58.023Z,64.54
2023-01-26T15:18:03.993Z,65.15
2023-01-26T15:23:26.796Z,65.14
2023-01-26T15:28:28.281Z,65.34
2023-01-26T15:33:40.081Z,65.45
2023-01-26T15:38:41.548Z,65.21
2023-01-26T15:43:43.335Z,65.65
2023-01-26T15:48:44.804Z,65.32
2023-01-26T15:53:46.446Z,65.52
2023-01-26T15:58:47.989Z,66.18
2023-01-26T16:03:50.702Z,65.98
2023-01-26T16:08:53.543Z,65.96
2023-01-26T16:14:03.126Z,66.01
2023-01-26T16:19:04.791Z,66.90
2023-01-26T16:24:06.444Z,67.06
2023-01-26T16:29:07.832Z,67.35
2023-01-26T16:34:10.099Z,67.35
2023-01-26T16:39:11.532Z,67.43
2023-01-26T16:44:15.707Z,67.60
2023-01-26T16:49:17.393Z,67.41
2023-01-26T16:54:18.792Z,67.54
2023-01-26T16:59:20.159Z,68.10
2023-01-26T17:04:21.488Z,67.66
2023-01-26T17:09:23.787Z,68.23
2023-01-26T17:14:25.261Z,68.74
2023-01-26T17:19:27.076Z,68.44
2023-01-26T17:24:28.409Z,68.26
2023-01-26T17:29:29.853Z,68.15
2023-01-26T17:34:31.172Z,68.54
2023-01-26T17:39:32.545Z,68.53
2023-01-26T17:44:34.144Z,68.94
2023-01-26T17:49:36.754Z,68.93
2023-01-26T17:54:38.140Z,69.09
2023-01-26T17:59:39.470Z,68.99
2023-01-26T18:04:40.837Z,69.14
2023-01-26T18:09:42.161Z,69.13
2023-01-26T18:14:44.756Z,69.57
2023-01-26T18:19:46.134Z,69.51
2023-01-26T18:24:48.113Z,69.50
2023-01-26T18:29:49.451Z,69.83
2023-01-26T18:34:50.757Z,69.98
2023-01-26T18:39:52.105Z,70.57
2023-01-26T18:45:00.664Z,70.45
2023-01-26T18:50:02.588Z,70.79
2023-01-26T18:55:04.209Z,70.66
2023-01-26T19:00:08.171Z,71.45
2023-01-26T19:05:10.050Z,70.94
2023-01-26T19:10:11.589Z,71.20
2023-01-26T19:15:13.199Z,71.86
2023-01-26T19:20:14.830Z,71.63
2023-01-26T19:25:16.161Z,72.36
2023-01-26T19:30:17.987Z,72.13
2023-01-26T19:35:19.338Z,72.62
2023-01-26T19:40:20.685Z,72.25
2023-01-26T19:45:22.015Z,72.49
2023-01-26T19:50:23.359Z,72.36
2023-01-26T19:55:24.721Z,72.17
2023-01-26T20:00:26.180Z,72.52
2023-01-26T20:05:27.567Z,72.77
2023-01-26T20:10:30.885Z,72.38
2023-01-26T20:15:35.361Z,72.28
2023-01-26T20:20:37.069Z,72.54
2023-01-26T20:25:38.559Z,72.50
2023-01-26T20:30:40.960Z,72.81
2023-01-26T20:35:43.464Z,73.39
2023-01-26T20:40:44.808Z,73.50
2023-01-26T20:45:46.189Z,73.57
2023-01-26T20:50:47.549Z,73.16
2023-01-26T20:55:48.897Z,73.57
2023-01-26T21:00:50.257Z,73.79
2023-01-26T21:05:51.615Z,74.49
2023-01-26T21:10:53.177Z,75.18
2023-01-26T21:15:54.592Z,74.69
2023-01-26T21:21:04.343Z,74.86
2023-01-26T21:26:09.574Z,74.37
2023-01-26T21:31:13.881Z,74.37
2023-01-26T21:36:18.683Z,74.00
2023-01-26T21:41:44.102Z,74.24
2023-01-26T21:46:46.608Z,74.16
2023-01-26T21:52:06.613Z,74.32
2023-01-26T21:57:28.563Z,74.09
2023-01-26T22:02:29.972Z,74.42
2023-01-26T22:07:32.129Z,74.01
2023-01-26T22:12:33.519Z,74.18
2023-01-26T22:17:34.866Z,74.13
2023-01-26T22:22:36.261Z,74.15
2023-01-26T22:27:39.543Z,74.42
2023-01-26T22:32:42.594Z,74.85
2023-01-26T22:37:44.001Z,74.94
2023-01-26T22:42:45.303Z,74.81
2023-01-26T22:47:50.295Z,74.90
2023-01-26T22:52:51.627Z,74.87
2023-01-26T22:57:53.013Z,75.22
2023-01-26T23:02:54.370Z,75.42
2023-01-26T23:07:56.050Z,75.26
2023-01-26T23:12:58.027Z,75.58
2023-01-26T23:17:59.384Z,75.49
2023-01-26T23:23:00.704Z,75.05
2023-01-26T23:28:03.403Z,74.98
2023-01-26T23:33:04.729Z,75.77
2023-01-26T23:38:06.065Z,75.84
2023-01-26T23:43:16.444Z,75.58
2023-01-26T23:48:19.791Z,75.56
2023-01-26T23:53:21.174Z,75.54
2023-01-26T23:58:22.751Z,75.18
